Forside
METAR-TAF:

METAR-TAF

Lufthavne :

Tokyo International Airport

Tokyo-Haneda, Japan

Breddekreds: 35-33N, længdekreds: 139-47E, højde: 5 m

Aktuelle vejr

Denne rapport blev lavet for 33 minutter siden, kl. 11:30 UTC
Vind 13 kt fra nordøst
Temperatur 19°C
Fugtighed 73%
Tryk 1014 hPa
Sigt 10 km eller mere
Nogle få skyer i en højde af 2000 ft
Spredte skyer i en højde af 4000 ft
Brudte skyer i en højde af 8000 ft
let regn

METAR: RJTT 171130Z 05013KT 9999 -RA FEW020 SCT040 BKN080 19/14 Q1014 NOSIG RMK 1CU020 3SC040 7AC080 A2994

Tid: 21:03 (12:03 UTC)

Vejrudsigter

Denne rapport blev lavet for 57 minutter siden, kl. 11:06 UTC
Foreløbig gælder fra 17 på 12 UTC til 18 på 18 UTC
Vind 12 kt fra nord
Sigt 10 km eller mere
Nogle få skyer i en højde af 3000 ft
Spredte skyer i en højde af 6000 ft

TAF: RJTT 171106Z 1712/1818 01012KT 9999 FEW030 SCT060

Vejrobservationer og prognoser fra mere end 4000 lufthavne (METAR og TAF).

De gule og røde prikker repræsenterer de meteorologiske stationer.

Flyt musen over at se navnet på stationen.

Så klik over at se vejr observationer og prognoser.

At skifte det kort: Klik på de grønne knapper med et sort kors for at zoome ind; på den grønne knap med en bindestreg for at zoome ud; eller på de grønne pile for tilstødende kort.


METAR-TAF: